createdAt,value
2023-04-09T00:02:02.900Z,100.00
2023-04-09T00:04:29.862Z,100.00
2023-04-09T00:06:56.461Z,100.00
2023-04-09T00:09:23.024Z,100.00
2023-04-09T00:11:49.642Z,100.00
2023-04-09T00:14:16.283Z,100.00
2023-04-09T00:16:43.009Z,100.00
2023-04-09T00:19:09.634Z,100.00
2023-04-09T00:21:37.209Z,100.00
2023-04-09T00:24:03.935Z,100.00
2023-04-09T00:26:31.443Z,100.00
2023-04-09T00:28:58.058Z,100.00
2023-04-09T00:31:24.682Z,100.00
2023-04-09T00:33:51.390Z,100.00
2023-04-09T00:36:18.090Z,100.00
2023-04-09T00:38:45.521Z,100.00
2023-04-09T00:41:12.226Z,100.00
2023-04-09T00:43:38.835Z,100.00
2023-04-09T00:46:06.189Z,100.00
2023-04-09T00:48:32.850Z,100.00
2023-04-09T00:50:59.454Z,100.00
2023-04-09T00:53:26.102Z,100.00
2023-04-09T00:55:53.374Z,100.00
2023-04-09T00:58:19.961Z,100.00
2023-04-09T01:00:46.563Z,100.00
2023-04-09T01:03:13.566Z,100.00
2023-04-09T01:05:43.129Z,100.00
2023-04-09T01:08:28.415Z,100.00
2023-04-09T01:10:54.972Z,100.00
2023-04-09T01:13:35.470Z,100.00
2023-04-09T01:16:03.369Z,100.00
2023-04-09T01:18:29.954Z,100.00
2023-04-09T01:21:02.819Z,100.00
2023-04-09T01:23:35.119Z,100.00
2023-04-09T01:26:04.778Z,100.00
2023-04-09T01:28:37.071Z,100.00
2023-04-09T01:31:09.395Z,100.00
2023-04-09T01:33:37.145Z,100.00
2023-04-09T01:36:04.803Z,100.00
2023-04-09T01:38:31.943Z,100.00
2023-04-09T01:41:00.125Z,100.00
2023-04-09T01:43:27.516Z,100.00
2023-04-09T01:45:54.495Z,100.00
2023-04-09T01:48:21.428Z,100.00
2023-04-09T01:50:48.391Z,100.00
2023-04-09T01:53:15.630Z,100.00
2023-04-09T01:55:42.196Z,100.00
2023-04-09T01:58:08.786Z,100.00
2023-04-09T02:00:39.955Z,100.00
2023-04-09T02:03:18.653Z,100.00
2023-04-09T02:05:47.311Z,100.00
2023-04-09T02:08:19.288Z,100.00
2023-04-09T02:10:52.075Z,100.00
2023-04-09T02:13:19.247Z,100.00
2023-04-09T02:15:46.582Z,100.00
2023-04-09T02:18:27.488Z,100.00
2023-04-09T02:20:54.727Z,100.00
2023-04-09T02:23:21.481Z,100.00
2023-04-09T02:25:48.206Z,100.00
2023-04-09T02:28:14.913Z,100.00
2023-04-09T02:30:41.651Z,100.00
2023-04-09T02:33:08.435Z,100.00
2023-04-09T02:35:35.068Z,100.00
2023-04-09T02:38:01.717Z,100.00
2023-04-09T02:40:28.498Z,100.00
2023-04-09T02:42:55.133Z,100.00
2023-04-09T02:45:21.767Z,100.00
2023-04-09T02:47:48.488Z,100.00
2023-04-09T02:50:15.078Z,100.00
2023-04-09T02:52:41.697Z,100.00
2023-04-09T02:55:08.542Z,100.00
2023-04-09T02:57:35.160Z,100.00
2023-04-09T03:00:01.768Z,100.00
2023-04-09T03:02:28.508Z,100.00
2023-04-09T03:04:55.261Z,100.00
2023-04-09T03:07:22.465Z,100.00
2023-04-09T03:09:49.247Z,100.00
2023-04-09T03:12:15.912Z,100.00
2023-04-09T03:14:42.492Z,100.00
2023-04-09T03:17:09.107Z,100.00
2023-04-09T03:19:35.698Z,100.00
2023-04-09T03:22:02.289Z,100.00
2023-04-09T03:24:29.187Z,100.00
2023-04-09T03:26:57.559Z,100.00
2023-04-09T03:29:24.183Z,100.00
2023-04-09T03:31:50.908Z,100.00
2023-04-09T03:34:17.635Z,100.00
2023-04-09T03:36:44.248Z,100.00
2023-04-09T03:39:10.885Z,100.00
2023-04-09T03:41:37.518Z,100.00
2023-04-09T03:44:04.190Z,100.00
2023-04-09T03:46:30.877Z,100.00
2023-04-09T03:48:57.562Z,100.00
2023-04-09T03:51:24.157Z,100.00
2023-04-09T03:53:50.816Z,100.00
2023-04-09T03:56:17.356Z,100.00
2023-04-09T03:58:44.002Z,100.00
2023-04-09T04:01:10.650Z,100.00
2023-04-09T04:03:37.366Z,100.00
2023-04-09T04:06:04.161Z,100.00
2023-04-09T04:08:30.852Z,100.00
2023-04-09T04:11:03.139Z,100.00
2023-04-09T04:13:29.739Z,100.00
2023-04-09T04:15:56.528Z,100.00
2023-04-09T04:18:23.160Z,100.00
2023-04-09T04:20:49.745Z,100.00
2023-04-09T04:23:16.432Z,100.00
2023-04-09T04:25:43.141Z,100.00
2023-04-09T04:28:09.704Z,100.00
2023-04-09T04:30:36.420Z,100.00
2023-04-09T04:33:03.058Z,100.00
2023-04-09T04:35:29.739Z,100.00
2023-04-09T04:37:56.394Z,100.00
2023-04-09T04:40:22.976Z,100.00
2023-04-09T04:42:49.658Z,100.00
2023-04-09T04:45:16.341Z,100.00
2023-04-09T04:47:43.007Z,100.00
2023-04-09T04:50:09.851Z,100.00
2023-04-09T04:52:36.871Z,100.00
2023-04-09T04:55:03.548Z,100.00
2023-04-09T04:57:30.126Z,100.00
2023-04-09T04:59:56.739Z,100.00
2023-04-09T05:02:23.477Z,100.00
2023-04-09T05:04:52.954Z,100.00
2023-04-09T05:07:19.584Z,100.00
2023-04-09T05:09:46.340Z,100.00
2023-04-09T05:12:13.846Z,100.00
2023-04-09T05:14:40.905Z,100.00
2023-04-09T05:17:07.639Z,100.00
2023-04-09T05:19:34.250Z,100.00
2023-04-09T05:22:00.964Z,100.00
2023-04-09T05:24:27.560Z,100.00
2023-04-09T05:26:54.191Z,100.00
2023-04-09T05:29:21.275Z,100.00
2023-04-09T05:31:47.900Z,100.00
2023-04-09T05:34:22.691Z,100.00
2023-04-09T05:36:49.293Z,100.00
2023-04-09T05:39:15.985Z,100.00
2023-04-09T05:41:45.017Z,100.00
2023-04-09T05:44:11.941Z,100.00
2023-04-09T05:46:38.680Z,100.00
2023-04-09T05:49:05.289Z,100.00
2023-04-09T05:51:31.944Z,100.00
2023-04-09T05:53:59.553Z,100.00
2023-04-09T05:56:28.206Z,100.00
2023-04-09T05:58:54.899Z,100.00
2023-04-09T06:01:21.996Z,100.00
2023-04-09T06:03:48.814Z,100.00
2023-04-09T06:06:15.617Z,100.00
2023-04-09T06:08:42.316Z,100.00
2023-04-09T06:11:09.848Z,100.00
2023-04-09T06:13:36.461Z,100.00
2023-04-09T06:16:06.783Z,100.00
2023-04-09T06:18:33.411Z,100.00
2023-04-09T06:21:06.549Z,100.00
2023-04-09T06:23:33.967Z,100.00
2023-04-09T06:26:00.640Z,100.00
2023-04-09T06:28:28.777Z,100.00
2023-04-09T06:30:55.892Z,100.00
2023-04-09T06:33:22.656Z,100.00
2023-04-09T06:35:49.434Z,100.00
2023-04-09T06:38:16.634Z,100.00
2023-04-09T06:40:43.287Z,100.00
2023-04-09T06:43:09.992Z,100.00
2023-04-09T06:45:39.562Z,100.00
2023-04-09T06:48:07.465Z,100.00
2023-04-09T06:50:34.196Z,100.00
2023-04-09T06:53:00.849Z,100.00
2023-04-09T06:55:27.508Z,100.00
2023-04-09T06:57:54.205Z,100.00
2023-04-09T07:00:20.960Z,100.00
2023-04-09T07:02:47.798Z,100.00
2023-04-09T07:05:14.604Z,100.00
2023-04-09T07:07:41.302Z,100.00
2023-04-09T07:10:08.171Z,100.00
2023-04-09T07:12:35.721Z,100.00
2023-04-09T07:15:03.054Z,100.00
2023-04-09T07:17:30.767Z,100.00
2023-04-09T07:19:57.526Z,100.00
2023-04-09T07:22:25.036Z,100.00
2023-04-09T07:24:55.237Z,100.00
2023-04-09T07:27:22.414Z,100.00
2023-04-09T07:29:49.040Z,100.00
2023-04-09T07:32:16.517Z,100.00
2023-04-09T07:34:43.915Z,100.00
2023-04-09T07:37:11.204Z,100.00
2023-04-09T07:39:37.900Z,100.00
2023-04-09T07:42:04.929Z,100.00
2023-04-09T07:44:35.064Z,100.00
2023-04-09T07:47:02.025Z,100.00
2023-04-09T07:49:28.804Z,100.00
2023-04-09T07:51:55.496Z,100.00
2023-04-09T07:54:22.119Z,100.00
2023-04-09T07:56:48.807Z,100.00
2023-04-09T07:59:15.841Z,100.00
2023-04-09T08:01:42.786Z,100.00
2023-04-09T08:04:10.129Z,100.00
2023-04-09T08:06:37.794Z,100.00
2023-04-09T08:09:04.425Z,100.00
2023-04-09T08:11:31.035Z,100.00
2023-04-09T08:13:57.723Z,86.82
2023-04-09T08:16:24.773Z,93.31
2023-04-09T08:18:51.726Z,100.00
2023-04-09T08:21:18.940Z,96.32
2023-04-09T08:23:45.595Z,100.00
2023-04-09T08:26:12.210Z,100.00
2023-04-09T08:28:38.807Z,100.00
2023-04-09T08:31:05.464Z,100.00
2023-04-09T08:33:32.044Z,100.00
2023-04-09T08:35:59.664Z,100.00
2023-04-09T08:38:27.443Z,100.00
2023-04-09T08:40:54.082Z,100.00
2023-04-09T08:43:22.239Z,100.00
2023-04-09T08:45:50.222Z,100.00
2023-04-09T08:48:17.193Z,100.00
2023-04-09T08:50:46.330Z,100.00
2023-04-09T08:53:13.582Z,100.00
2023-04-09T08:55:40.503Z,100.00
2023-04-09T08:58:13.025Z,100.00
2023-04-09T09:00:39.682Z,100.00
2023-04-09T09:03:08.600Z,100.00
2023-04-09T09:05:36.024Z,100.00
2023-04-09T09:08:02.659Z,100.00
2023-04-09T09:10:42.857Z,100.00
2023-04-09T09:13:22.471Z,100.00
2023-04-09T09:15:53.043Z,100.00
2023-04-09T09:18:19.748Z,100.00
2023-04-09T09:20:46.477Z,100.00
2023-04-09T09:23:13.120Z,100.00
2023-04-09T09:25:40.663Z,100.00
2023-04-09T09:28:08.632Z,100.00
2023-04-09T09:30:36.499Z,100.00
2023-04-09T09:33:11.596Z,100.00
2023-04-09T09:35:51.318Z,100.00
2023-04-09T09:38:18.391Z,100.00
2023-04-09T09:40:45.037Z,100.00
2023-04-09T09:43:14.471Z,100.00
2023-04-09T09:45:42.043Z,100.00
2023-04-09T09:48:10.535Z,100.00
2023-04-09T09:50:38.043Z,100.00
2023-04-09T09:53:06.203Z,100.00
2023-04-09T09:55:33.582Z,100.00
2023-04-09T09:58:06.643Z,100.00
2023-04-09T10:00:33.297Z,100.00
2023-04-09T10:03:04.759Z,100.00
2023-04-09T10:05:31.676Z,100.00
2023-04-09T10:07:58.803Z,100.00
2023-04-09T10:10:26.201Z,100.00
2023-04-09T10:12:52.951Z,100.00
2023-04-09T10:15:20.049Z,100.00
2023-04-09T10:17:46.787Z,100.00
2023-04-09T10:20:36.748Z,100.00
2023-04-09T10:23:05.826Z,100.00
2023-04-09T10:25:32.524Z,100.00
2023-04-09T10:28:02.653Z,100.00
2023-04-09T10:30:33.478Z,100.00
2023-04-09T10:33:16.917Z,100.00
2023-04-09T10:35:46.885Z,100.00
2023-04-09T10:38:14.920Z,100.00
2023-04-09T10:40:48.011Z,100.00
2023-04-09T10:43:15.084Z,100.00
2023-04-09T10:45:42.583Z,100.00
2023-04-09T10:48:16.241Z,100.00
2023-04-09T10:50:44.605Z,99.71
2023-04-09T10:53:24.151Z,97.65
2023-04-09T10:55:51.566Z,94.58
2023-04-09T10:58:18.185Z,93.05
2023-04-09T11:00:46.017Z,91.73
2023-04-09T11:03:15.408Z,91.62
2023-04-09T11:05:43.087Z,92.91
2023-04-09T11:08:14.008Z,89.60
2023-04-09T11:10:42.234Z,89.82
2023-04-09T11:13:13.578Z,90.71
2023-04-09T11:15:40.306Z,89.58
2023-04-09T11:18:14.192Z,91.73
2023-04-09T11:20:41.066Z,90.40
2023-04-09T11:23:07.926Z,91.37
2023-04-09T11:25:35.752Z,89.57
2023-04-09T11:28:06.245Z,88.88
2023-04-09T11:30:34.585Z,89.02
2023-04-09T11:33:02.008Z,88.39
2023-04-09T11:35:28.689Z,87.63
2023-04-09T11:37:55.310Z,87.08
2023-04-09T11:40:23.626Z,88.41
2023-04-09T11:42:52.830Z,87.14
2023-04-09T11:45:20.776Z,88.97
2023-04-09T11:47:47.604Z,88.73
2023-04-09T11:50:15.217Z,89.55
2023-04-09T11:52:42.237Z,90.33
2023-04-09T11:55:09.642Z,87.90
2023-04-09T11:57:37.336Z,85.15
2023-04-09T12:00:14.649Z,85.40
2023-04-09T12:02:42.525Z,85.57
2023-04-09T12:05:10.236Z,87.28
2023-04-09T12:07:37.746Z,89.78
2023-04-09T12:10:06.341Z,86.79
2023-04-09T12:12:39.716Z,86.34
2023-04-09T12:15:13.490Z,85.26
2023-04-09T12:17:40.205Z,85.20
2023-04-09T12:20:09.901Z,85.15
2023-04-09T12:22:40.901Z,84.24
2023-04-09T12:25:08.693Z,82.02
2023-04-09T12:27:35.355Z,79.37
2023-04-09T12:30:02.038Z,78.56
2023-04-09T12:32:28.852Z,77.47
2023-04-09T12:34:55.920Z,77.11
2023-04-09T12:37:22.913Z,76.45
2023-04-09T12:39:49.521Z,76.43
2023-04-09T12:42:16.316Z,72.66
2023-04-09T12:44:42.975Z,72.59
2023-04-09T12:47:09.588Z,73.44
2023-04-09T12:49:36.291Z,70.59
2023-04-09T12:52:02.975Z,74.44
2023-04-09T12:54:29.652Z,77.39
2023-04-09T12:56:56.588Z,80.57
2023-04-09T12:59:23.182Z,77.63
2023-04-09T13:01:49.780Z,79.52
2023-04-09T13:04:16.604Z,76.93
2023-04-09T13:06:43.308Z,76.94
2023-04-09T13:09:09.944Z,76.43
2023-04-09T13:11:36.554Z,76.94
2023-04-09T13:14:03.202Z,73.28
2023-04-09T13:16:29.896Z,71.31
2023-04-09T13:18:56.756Z,72.03
2023-04-09T13:21:23.414Z,71.32
2023-04-09T13:23:50.063Z,69.65
2023-04-09T13:26:16.722Z,71.91
2023-04-09T13:28:44.151Z,74.56
2023-04-09T13:31:10.797Z,73.31
2023-04-09T13:33:37.465Z,72.92
2023-04-09T13:36:05.090Z,71.22
2023-04-09T13:38:31.795Z,72.05
2023-04-09T13:40:58.511Z,74.11
2023-04-09T13:43:28.189Z,73.52
2023-04-09T13:45:55.100Z,70.55
2023-04-09T13:48:21.990Z,70.06
2023-04-09T13:50:48.636Z,65.94
2023-04-09T13:53:15.365Z,67.84
2023-04-09T13:55:42.072Z,66.99
2023-04-09T13:58:08.758Z,68.41
2023-04-09T14:00:36.222Z,66.38
2023-04-09T14:03:06.750Z,67.41
2023-04-09T14:05:33.444Z,66.45
2023-04-09T14:08:00.136Z,63.63
2023-04-09T14:10:27.760Z,60.89
2023-04-09T14:12:54.335Z,62.08
2023-04-09T14:15:20.987Z,63.47
2023-04-09T14:17:47.712Z,64.15
2023-04-09T14:20:14.438Z,65.21
2023-04-09T14:22:43.164Z,68.21
2023-04-09T14:25:10.015Z,68.94
2023-04-09T14:27:36.759Z,70.17
2023-04-09T14:30:03.811Z,68.44
2023-04-09T14:32:30.528Z,65.60
2023-04-09T14:34:57.188Z,60.54
2023-04-09T14:37:23.766Z,59.60
2023-04-09T14:39:50.390Z,61.80
2023-04-09T14:42:16.966Z,62.73
2023-04-09T14:44:43.616Z,60.80
2023-04-09T14:47:10.241Z,63.52
2023-04-09T14:49:36.905Z,63.91
2023-04-09T14:52:03.571Z,65.67
2023-04-09T14:54:31.589Z,65.04
2023-04-09T14:57:02.797Z,61.62
2023-04-09T14:59:29.444Z,62.36
2023-04-09T15:01:56.207Z,63.49
2023-04-09T15:04:23.779Z,65.35
2023-04-09T15:06:50.461Z,66.32
2023-04-09T15:09:17.458Z,66.59
2023-04-09T15:11:44.101Z,69.41
2023-04-09T15:14:10.796Z,70.24
2023-04-09T15:16:37.768Z,69.39
2023-04-09T15:19:04.639Z,69.07
2023-04-09T15:21:31.855Z,70.02
2023-04-09T15:23:59.156Z,72.52
2023-04-09T15:26:27.387Z,73.13
2023-04-09T15:29:01.385Z,74.52
2023-04-09T15:31:28.115Z,75.39
2023-04-09T15:33:54.861Z,73.91
2023-04-09T15:36:21.486Z,74.56
2023-04-09T15:38:48.155Z,75.77
2023-04-09T15:41:18.974Z,74.39
2023-04-09T15:43:45.567Z,75.72
2023-04-09T15:46:12.379Z,76.70
2023-04-09T15:48:39.090Z,77.43
2023-04-09T15:51:06.014Z,76.32
2023-04-09T15:53:32.710Z,76.51
2023-04-09T15:55:59.414Z,76.57
2023-04-09T15:58:26.044Z,75.78
2023-04-09T16:00:52.805Z,77.31
2023-04-09T16:03:19.548Z,77.22
2023-04-09T16:05:47.704Z,76.51
2023-04-09T16:08:14.728Z,76.34
2023-04-09T16:10:41.539Z,76.34
2023-04-09T16:13:08.171Z,78.56
2023-04-09T16:15:35.300Z,78.74
2023-04-09T16:18:02.298Z,78.51
2023-04-09T16:20:29.496Z,76.75
2023-04-09T16:22:56.133Z,77.37
2023-04-09T16:25:24.583Z,77.44
2023-04-09T16:27:51.215Z,77.90
2023-04-09T16:30:17.842Z,77.15
2023-04-09T16:32:44.532Z,77.96
2023-04-09T16:35:11.129Z,78.12
2023-04-09T16:37:38.898Z,78.67
2023-04-09T16:40:06.023Z,78.25
2023-04-09T16:42:32.899Z,77.85
2023-04-09T16:44:59.560Z,78.49
2023-04-09T16:47:26.223Z,79.70
2023-04-09T16:49:52.905Z,79.24
2023-04-09T16:52:19.560Z,80.11
2023-04-09T16:54:46.384Z,80.52
2023-04-09T16:57:12.977Z,80.34
2023-04-09T16:59:42.750Z,81.29
2023-04-09T17:02:09.948Z,81.95
2023-04-09T17:04:38.347Z,82.64
2023-04-09T17:07:05.021Z,83.87
2023-04-09T17:09:31.881Z,85.52
2023-04-09T17:11:58.584Z,86.59
2023-04-09T17:14:25.363Z,86.78
2023-04-09T17:16:53.990Z,87.77
2023-04-09T17:19:20.659Z,88.59
2023-04-09T17:21:47.495Z,88.72
2023-04-09T17:24:14.197Z,89.97
2023-04-09T17:26:40.770Z,90.83
2023-04-09T17:29:07.491Z,92.00
2023-04-09T17:31:34.097Z,93.54
2023-04-09T17:34:00.709Z,95.96
2023-04-09T17:36:27.960Z,98.73
2023-04-09T17:38:56.697Z,100.00
2023-04-09T17:41:24.222Z,100.00
2023-04-09T17:43:51.009Z,100.00
2023-04-09T17:46:18.207Z,100.00
2023-04-09T17:48:44.992Z,100.00
2023-04-09T17:51:18.617Z,100.00
2023-04-09T17:53:45.596Z,100.00
2023-04-09T17:56:15.854Z,100.00
2023-04-09T17:58:43.181Z,100.00
2023-04-09T18:01:12.783Z,100.00
2023-04-09T18:03:39.851Z,100.00
2023-04-09T18:06:07.370Z,100.00
2023-04-09T18:08:34.423Z,100.00
2023-04-09T18:11:11.928Z,100.00
2023-04-09T18:13:39.793Z,100.00
2023-04-09T18:16:10.823Z,100.00
2023-04-09T18:18:37.578Z,100.00
2023-04-09T18:21:06.220Z,100.00
2023-04-09T18:23:33.066Z,100.00
2023-04-09T18:25:59.763Z,100.00
2023-04-09T18:28:26.473Z,100.00
2023-04-09T18:30:54.282Z,100.00
2023-04-09T18:33:21.355Z,100.00
2023-04-09T18:35:48.173Z,100.00
2023-04-09T18:38:14.825Z,100.00
2023-04-09T18:40:42.718Z,100.00
2023-04-09T18:43:10.213Z,100.00
2023-04-09T18:45:36.895Z,100.00
2023-04-09T18:48:03.664Z,100.00
2023-04-09T18:50:30.784Z,100.00
2023-04-09T18:52:57.666Z,100.00
2023-04-09T18:55:24.266Z,100.00
2023-04-09T18:57:51.539Z,100.00
2023-04-09T19:00:18.360Z,100.00
2023-04-09T19:02:45.554Z,100.00
2023-04-09T19:05:12.424Z,100.00
2023-04-09T19:07:39.658Z,100.00
2023-04-09T19:10:06.839Z,100.00
2023-04-09T19:12:33.569Z,100.00
2023-04-09T19:15:02.045Z,100.00
2023-04-09T19:17:29.148Z,100.00
2023-04-09T19:19:56.164Z,100.00
2023-04-09T19:22:22.902Z,100.00
2023-04-09T19:24:49.559Z,100.00
2023-04-09T19:27:16.594Z,100.00
2023-04-09T19:29:43.388Z,100.00
2023-04-09T19:32:12.949Z,100.00
2023-04-09T19:34:39.844Z,100.00
2023-04-09T19:37:06.879Z,100.00
2023-04-09T19:39:33.503Z,100.00
2023-04-09T19:42:00.257Z,100.00
2023-04-09T19:44:26.944Z,100.00
2023-04-09T19:46:53.611Z,100.00
2023-04-09T19:49:20.586Z,100.00
2023-04-09T19:51:47.222Z,100.00
2023-04-09T19:54:15.334Z,100.00
2023-04-09T19:56:42.639Z,100.00
2023-04-09T19:59:09.351Z,100.00
2023-04-09T20:01:36.274Z,100.00
2023-04-09T20:04:03.217Z,100.00
2023-04-09T20:06:30.842Z,100.00
2023-04-09T20:08:57.570Z,100.00
2023-04-09T20:11:24.169Z,100.00
2023-04-09T20:13:52.145Z,100.00
2023-04-09T20:16:18.892Z,100.00
2023-04-09T20:18:45.738Z,100.00
2023-04-09T20:21:14.546Z,100.00
2023-04-09T20:23:41.500Z,100.00
2023-04-09T20:26:11.159Z,100.00
2023-04-09T20:28:37.832Z,100.00
2023-04-09T20:31:04.686Z,100.00
2023-04-09T20:33:32.249Z,100.00
2023-04-09T20:35:59.059Z,100.00
2023-04-09T20:38:25.831Z,100.00
2023-04-09T20:40:52.924Z,100.00
2023-04-09T20:43:20.640Z,100.00
2023-04-09T20:45:47.608Z,100.00
2023-04-09T20:48:15.052Z,100.00
2023-04-09T20:50:42.291Z,100.00
2023-04-09T20:53:09.008Z,100.00
2023-04-09T20:55:35.855Z,100.00
2023-04-09T20:58:02.994Z,100.00
2023-04-09T21:00:29.908Z,100.00
2023-04-09T21:02:56.681Z,100.00
2023-04-09T21:05:24.345Z,100.00
2023-04-09T21:07:51.983Z,100.00
2023-04-09T21:10:18.659Z,100.00
2023-04-09T21:12:45.376Z,100.00
2023-04-09T21:15:12.010Z,100.00
2023-04-09T21:17:38.736Z,100.00
2023-04-09T21:20:05.748Z,100.00
2023-04-09T21:22:33.957Z,100.00
2023-04-09T21:25:00.604Z,100.00
2023-04-09T21:27:27.260Z,100.00
2023-04-09T21:29:54.680Z,100.00
2023-04-09T21:32:21.380Z,100.00
2023-04-09T21:34:47.986Z,100.00
2023-04-09T21:37:14.707Z,100.00
2023-04-09T21:39:41.309Z,100.00
2023-04-09T21:42:08.890Z,100.00
2023-04-09T21:44:35.699Z,100.00
2023-04-09T21:47:07.552Z,100.00
2023-04-09T21:49:39.153Z,100.00
2023-04-09T21:52:07.211Z,100.00
2023-04-09T21:54:33.788Z,100.00
2023-04-09T21:57:01.265Z,100.00
2023-04-09T21:59:28.301Z,100.00
2023-04-09T22:01:54.905Z,100.00
2023-04-09T22:04:21.806Z,100.00
2023-04-09T22:06:48.475Z,100.00
2023-04-09T22:09:15.072Z,100.00
2023-04-09T22:11:42.691Z,100.00
2023-04-09T22:14:09.325Z,100.00
2023-04-09T22:16:36.326Z,100.00
2023-04-09T22:19:02.992Z,100.00
2023-04-09T22:21:29.595Z,100.00
2023-04-09T22:23:56.225Z,100.00
2023-04-09T22:26:22.913Z,100.00
2023-04-09T22:28:50.381Z,100.00
2023-04-09T22:31:17.046Z,100.00
2023-04-09T22:33:43.685Z,100.00
2023-04-09T22:36:10.489Z,100.00
2023-04-09T22:38:37.305Z,100.00
2023-04-09T22:41:03.952Z,100.00
2023-04-09T22:43:30.845Z,100.00
2023-04-09T22:45:57.853Z,100.00
2023-04-09T22:48:24.534Z,100.00
2023-04-09T22:50:51.249Z,100.00
2023-04-09T22:53:21.929Z,100.00
2023-04-09T22:55:51.216Z,100.00
2023-04-09T22:58:18.347Z,100.00
2023-04-09T23:00:45.086Z,100.00
2023-04-09T23:03:11.895Z,100.00
2023-04-09T23:05:39.027Z,100.00
2023-04-09T23:08:06.054Z,100.00
2023-04-09T23:10:33.291Z,100.00
2023-04-09T23:12:59.997Z,100.00
2023-04-09T23:15:26.851Z,100.00
2023-04-09T23:17:53.626Z,100.00
2023-04-09T23:20:20.689Z,100.00
2023-04-09T23:22:47.776Z,100.00
2023-04-09T23:25:14.988Z,100.00
2023-04-09T23:27:41.611Z,100.00
2023-04-09T23:30:09.017Z,100.00
2023-04-09T23:32:35.934Z,100.00
2023-04-09T23:35:02.592Z,100.00
2023-04-09T23:37:29.284Z,100.00
2023-04-09T23:39:55.912Z,100.00
2023-04-09T23:42:22.571Z,100.00
2023-04-09T23:44:50.508Z,100.00
2023-04-09T23:47:17.488Z,100.00
2023-04-09T23:49:45.012Z,100.00
2023-04-09T23:52:11.687Z,100.00
2023-04-09T23:54:38.250Z,100.00
2023-04-09T23:57:04.930Z,100.00
2023-04-09T23:59:33.992Z,100.00
